Time;durP1;ratioP1;P1;durP2;ratioP2;P2;SDS_P1;SDS_P2;PMS_P1;PMS_P2;Temp;Humidity;BMP_temperature;BMP_pressure;BME280_temperature;BME280_humidity;BME280_pressure;Samples;Min_cycle;Max_cycle;Signal;HPM_P1;HPM_P2
2021/12/28 00:01:54;;;;;;;2.00;0.10;;;20.10;61.60;;;;;;5034643;28;20128;-55
2021/12/28 00:04:21;;;;;;;2.67;0.28;;;20.10;61.60;;;;;;5034920;28;20041;-56
2021/12/28 00:06:48;;;;;;;1.60;0.05;;;20.10;61.60;;;;;;5036041;28;20046;-56
2021/12/28 00:09:16;;;;;;;8.25;0.30;;;20.10;61.60;;;;;;5046576;28;20041;-55
2021/12/28 00:11:44;;;;;;;1.67;0.10;;;20.10;61.60;;;;;;5038854;28;20042;-56
2021/12/28 00:14:11;;;;;;;0.98;0.30;;;20.10;61.60;;;;;;5039117;28;20044;-55
2021/12/28 00:19:20;;;;;;;2.20;0.10;;;20.00;61.50;;;;;;5032899;28;20045;-54
2021/12/28 00:21:47;;;;;;;1.02;0.13;;;20.00;61.50;;;;;;5032169;28;20090;-57
2021/12/28 00:24:14;;;;;;;2.15;0.10;;;20.00;61.60;;;;;;5047261;28;20520;-56
2021/12/28 00:26:41;;;;;;;0.30;0.20;;;20.00;61.60;;;;;;5040092;28;20196;-54
2021/12/28 00:29:10;;;;;;;1.23;0.20;;;20.00;61.60;;;;;;5038192;28;20044;-52
2021/12/28 00:31:37;;;;;;;3.97;0.57;;;20.00;61.60;;;;;;5046666;28;20065;-56
2021/12/28 00:34:04;;;;;;;2.65;0.10;;;20.00;61.60;;;;;;5038712;28;20048;-52
2021/12/28 00:36:31;;;;;;;1.67;0.15;;;20.00;61.60;;;;;;5035019;28;20072;-56
2021/12/28 00:39:00;;;;;;;0.20;0.10;;;20.00;61.60;;;;;;5039406;28;20046;-55
2021/12/28 00:41:27;;;;;;;1.02;0.20;;;19.90;61.60;;;;;;5038964;28;20037;-50
2021/12/28 00:43:54;;;;;;;3.13;0.22;;;19.90;61.60;;;;;;5045436;28;20051;-55
2021/12/28 00:46:22;;;;;;;0.17;0.10;;;19.90;61.60;;;;;;5032867;28;20033;-55
2021/12/28 00:48:50;;;;;;;1.33;0.10;;;19.90;61.70;;;;;;5033587;28;20057;-54
2021/12/28 00:51:17;;;;;;;0.30;0.05;;;19.90;61.70;;;;;;5040160;28;20047;-54
2021/12/28 00:53:44;;;;;;;2.17;0.30;;;19.90;61.70;;;;;;5033826;28;20060;-55
2021/12/28 00:56:11;;;;;;;0.70;0.10;;;19.90;61.80;;;;;;5037111;28;20087;-56
2021/12/28 00:58:39;;;;;;;1.65;0.00;;;19.90;61.80;;;;;;5033181;28;20128;-52
2021/12/28 01:01:06;;;;;;;0.35;0.20;;;19.90;61.80;;;;;;5030727;28;20536;-50
2021/12/28 01:03:37;;;;;;;0.63;0.28;;;19.90;61.80;;;;;;5031618;28;20049;-51
2021/12/28 01:06:05;;;;;;;1.65;0.13;;;19.90;61.90;;;;;;5038674;28;20509;-51
2021/12/28 01:08:33;;;;;;;1.33;0.10;;;19.90;61.90;;;;;;5034188;28;20044;-53
2021/12/28 01:11:01;;;;;;;0.32;0.30;;;19.90;61.80;;;;;;5034201;28;20076;-52
2021/12/28 01:13:28;;;;;;;0.43;0.20;;;19.80;61.80;;;;;;5032707;28;20051;-56
2021/12/28 01:15:55;;;;;;;0.20;0.10;;;19.80;61.80;;;;;;5034266;28;20152;-55
2021/12/28 01:18:23;;;;;;;1.27;0.28;;;19.80;61.80;;;;;;5033996;28;20038;-51
2021/12/28 01:20:52;;;;;;;0.80;0.10;;;19.80;61.80;;;;;;5037661;28;20041;-56
2021/12/28 01:23:19;;;;;;;0.32;0.10;;;19.80;61.80;;;;;;5038930;28;20532;-52
2021/12/28 01:25:46;;;;;;;0.30;0.15;;;19.80;61.80;;;;;;5034826;28;20156;-54
2021/12/28 01:28:13;;;;;;;0.30;0.10;;;19.80;61.80;;;;;;5030795;28;20037;-51
2021/12/28 01:30:41;;;;;;;0.40;0.10;;;19.80;61.70;;;;;;5030024;28;20067;-53
2021/12/28 01:33:09;;;;;;;0.30;0.10;;;19.80;61.70;;;;;;5039156;28;20041;-53
2021/12/28 01:35:36;;;;;;;5.28;0.20;;;19.80;61.70;;;;;;5034770;28;20525;-53
2021/12/28 01:38:05;;;;;;;0.80;0.10;;;19.80;61.80;;;;;;5034241;28;20429;-51
2021/12/28 01:40:35;;;;;;;0.43;0.10;;;19.80;61.80;;;;;;5033633;28;20051;-49
2021/12/28 01:43:10;;;;;;;0.10;0.10;;;19.80;61.80;;;;;;5046160;28;20037;-49
2021/12/28 01:45:44;;;;;;;0.10;0.10;;;19.80;61.80;;;;;;5029227;28;20155;-54
2021/12/28 01:48:13;;;;;;;0.20;0.10;;;19.80;61.80;;;;;;5035264;28;20055;-50
2021/12/28 01:50:40;;;;;;;0.10;0.10;;;19.70;61.80;;;;;;5040284;28;20053;-54
2021/12/28 01:53:09;;;;;;;0.52;0.10;;;19.70;61.70;;;;;;5040665;28;20033;-53
2021/12/28 01:55:39;;;;;;;0.10;0.10;;;19.70;61.70;;;;;;5032200;28;20045;-53
2021/12/28 01:58:07;;;;;;;0.10;0.10;;;19.70;61.80;;;;;;5033744;28;20045;-52
2021/12/28 02:00:34;;;;;;;0.10;0.05;;;19.70;61.80;;;;;;5031667;28;20041;-54
2021/12/28 02:03:06;;;;;;;0.15;0.00;;;19.70;61.70;;;;;;5031992;28;20124;-51
2021/12/28 02:05:33;;;;;;;0.93;0.00;;;19.70;61.80;;;;;;5037100;28;20395;-56
2021/12/28 02:08:00;;;;;;;0.98;0.10;;;19.70;61.70;;;;;;5032489;28;20041;-55
2021/12/28 02:10:29;;;;;;;0.00;0.00;;;19.70;61.70;;;;;;5030094;28;20044;-54
2021/12/28 02:12:56;;;;;;;0.00;0.00;;;19.70;61.70;;;;;;5030705;28;20048;-54
2021/12/28 02:15:23;;;;;;;0.00;0.00;;;19.70;62.20;;;;;;5036510;28;20406;-54
2021/12/28 02:17:50;;;;;;;1.02;0.30;;;19.70;61.70;;;;;;5032427;28;20052;-55
2021/12/28 02:20:21;;;;;;;0.00;0.00;;;19.70;61.70;;;;;;5033547;28;20791;-54
2021/12/28 02:22:48;;;;;;;0.10;0.08;;;19.70;61.70;;;;;;5032911;28;20049;-55
2021/12/28 02:25:18;;;;;;;0.52;0.10;;;19.70;61.70;;;;;;5033471;28;20439;-54
2021/12/28 02:27:45;;;;;;;0.00;0.00;;;19.70;61.60;;;;;;5030716;28;20049;-52
2021/12/28 02:30:16;;;;;;;4.82;0.00;;;19.70;61.60;;;;;;5033203;28;20529;-51
2021/12/28 02:32:44;;;;;;;1.58;0.00;;;19.70;61.60;;;;;;5038062;28;20044;-52
2021/12/28 02:35:14;;;;;;;0.03;0.00;;;19.70;61.60;;;;;;5033382;28;20041;-56
2021/12/28 02:37:43;;;;;;;1.58;0.00;;;19.70;61.60;;;;;;5033679;28;20409;-53
2021/12/28 02:40:14;;;;;;;0.10;0.00;;;19.70;61.60;;;;;;5044394;28;20068;-56
2021/12/28 02:42:41;;;;;;;0.45;0.20;;;19.70;61.50;;;;;;5033816;28;20045;-54
2021/12/28 02:45:12;;;;;;;0.00;0.00;;;19.70;61.50;;;;;;5033597;28;20056;-52
2021/12/28 02:47:40;;;;;;;0.00;0.00;;;19.70;61.50;;;;;;5034463;28;20075;-52
2021/12/28 02:50:11;;;;;;;0.00;0.00;;;19.70;61.50;;;;;;5036357;28;20064;-54
2021/12/28 02:52:39;;;;;;;3.03;0.00;;;19.70;61.50;;;;;;5034546;28;20053;-52
2021/12/28 02:55:10;;;;;;;0.00;0.00;;;19.70;61.40;;;;;;5031144;28;20045;-53
2021/12/28 02:57:37;;;;;;;0.35;0.00;;;19.70;61.40;;;;;;5032706;28;20041;-57
2021/12/28 03:00:07;;;;;;;0.75;0.13;;;19.70;61.40;;;;;;5040387;28;20056;-55
2021/12/28 03:02:34;;;;;;;1.17;0.00;;;19.60;61.30;;;;;;5034859;28;20034;-55
2021/12/28 03:05:01;;;;;;;0.32;0.00;;;19.60;61.30;;;;;;5033990;28;20060;-56
2021/12/28 03:07:30;;;;;;;0.00;0.00;;;19.60;61.30;;;;;;5033290;28;20492;-50
2021/12/28 03:09:57;;;;;;;0.20;0.00;;;19.70;61.30;;;;;;5029081;28;20042;-51
2021/12/28 03:12:26;;;;;;;0.30;0.30;;;19.60;61.30;;;;;;5030506;28;20057;-51
2021/12/28 03:14:53;;;;;;;0.00;0.00;;;19.60;61.20;;;;;;5036305;28;20045;-54
2021/12/28 03:17:20;;;;;;;0.08;0.00;;;19.60;61.20;;;;;;5031643;28;20069;-54
2021/12/28 03:19:47;;;;;;;0.00;0.00;;;19.60;61.20;;;;;;5033548;28;20128;-57
2021/12/28 03:22:14;;;;;;;0.03;0.00;;;19.60;61.10;;;;;;5031401;28;20044;-56
2021/12/28 03:24:42;;;;;;;0.10;0.00;;;19.60;61.10;;;;;;5033158;28;20049;-57
2021/12/28 03:27:09;;;;;;;0.00;0.00;;;19.60;61.10;;;;;;5032090;28;20120;-53
2021/12/28 03:29:37;;;;;;;0.00;0.00;;;19.60;61.10;;;;;;5036366;28;20034;-54
2021/12/28 03:32:05;;;;;;;2.45;0.00;;;19.60;61.10;;;;;;5037678;28;20044;-54
2021/12/28 03:34:32;;;;;;;0.00;0.00;;;19.60;61.10;;;;;;5036585;28;20037;-52
2021/12/28 03:36:59;;;;;;;0.00;0.00;;;19.60;61.00;;;;;;5033181;28;20128;-53
2021/12/28 03:39:26;;;;;;;0.00;0.00;;;19.60;61.10;;;;;;5042624;28;20052;-53
2021/12/28 03:41:53;;;;;;;0.77;0.43;;;19.60;61.00;;;;;;5043104;28;20498;-55
2021/12/28 03:44:20;;;;;;;0.15;0.00;;;19.60;61.00;;;;;;5036687;28;20049;-54
2021/12/28 03:46:48;;;;;;;0.20;0.00;;;19.60;60.90;;;;;;5042171;28;20569;-50
2021/12/28 03:49:15;;;;;;;0.00;0.00;;;19.60;60.90;;;;;;5038387;28;20040;-53
2021/12/28 03:51:42;;;;;;;0.57;0.00;;;19.50;60.90;;;;;;5037820;28;20054;-56
2021/12/28 03:54:09;;;;;;;0.22;0.00;;;19.60;60.90;;;;;;5037539;28;20037;-51
2021/12/28 03:56:36;;;;;;;0.40;0.10;;;19.60;60.90;;;;;;5037323;28;20042;-50
2021/12/28 03:59:03;;;;;;;0.30;0.03;;;19.60;60.80;;;;;;5037736;28;20063;-52
2021/12/28 04:01:30;;;;;;;0.10;0.00;;;19.60;60.80;;;;;;5037360;28;20075;-53
2021/12/28 04:03:59;;;;;;;0.00;0.00;;;19.60;61.30;;;;;;5033421;28;20533;-52
2021/12/28 04:06:27;;;;;;;0.20;0.00;;;19.60;60.80;;;;;;5036741;28;20131;-52
2021/12/28 04:08:56;;;;;;;0.60;0.00;;;19.50;60.70;;;;;;5042223;28;20045;-56
2021/12/28 04:11:29;;;;;;;0.93;0.22;;;19.60;60.70;;;;;;5037994;28;20056;-50
2021/12/28 04:14:00;;;;;;;0.15;0.00;;;19.50;60.70;;;;;;5035133;28;20132;-52
2021/12/28 04:16:28;;;;;;;0.00;0.00;;;19.50;60.70;;;;;;5029232;28;20127;-53
2021/12/28 04:18:55;;;;;;;0.00;0.00;;;19.60;60.70;;;;;;5031193;28;20052;-54
2021/12/28 04:21:23;;;;;;;0.00;0.00;;;19.50;60.60;;;;;;5033536;28;20045;-54
2021/12/28 04:23:51;;;;;;;0.50;0.00;;;19.60;60.70;;;;;;5038709;28;20042;-56
2021/12/28 04:26:19;;;;;;;1.13;0.00;;;19.50;60.60;;;;;;5034455;28;20080;-54
2021/12/28 04:28:46;;;;;;;1.20;0.00;;;19.50;60.60;;;;;;5031763;28;20041;-53
2021/12/28 04:31:14;;;;;;;1.20;0.00;;;19.60;60.70;;;;;;5033585;28;20044;-51
2021/12/28 04:33:42;;;;;;;1.10;0.25;;;19.60;60.60;;;;;;5035728;28;20046;-54
2021/12/28 04:36:11;;;;;;;0.10;0.00;;;19.50;60.60;;;;;;5034094;28;20045;-53
2021/12/28 04:38:41;;;;;;;1.55;0.13;;;19.50;60.60;;;;;;5038176;28;20052;-51
2021/12/28 04:41:09;;;;;;;0.00;0.00;;;19.50;60.60;;;;;;5036576;28;20036;-50
2021/12/28 04:43:37;;;;;;;0.73;0.00;;;19.50;60.60;;;;;;5034332;28;20044;-53
2021/12/28 04:46:05;;;;;;;0.00;0.00;;;19.50;60.60;;;;;;5031914;28;20036;-53
2021/12/28 04:48:32;;;;;;;0.10;0.00;;;19.50;60.50;;;;;;5033184;28;20050;-53
2021/12/28 04:50:59;;;;;;;2.60;0.10;;;19.50;60.50;;;;;;5039784;28;20052;-53
2021/12/28 04:53:26;;;;;;;1.65;0.05;;;19.50;60.50;;;;;;5035391;28;20041;-53
2021/12/28 04:55:55;;;;;;;0.20;0.00;;;19.50;60.50;;;;;;5036761;28;20124;-54
2021/12/28 04:58:22;;;;;;;0.43;0.25;;;19.50;60.40;;;;;;5032613;28;20041;-55
2021/12/28 05:00:52;;;;;;;1.17;0.10;;;19.50;60.40;;;;;;5036752;28;20140;-55
2021/12/28 05:03:19;;;;;;;1.55;0.00;;;19.50;60.40;;;;;;5035561;28;20041;-54
2021/12/28 05:05:52;;;;;;;0.30;0.00;;;19.50;60.40;;;;;;5036231;28;20053;-51
2021/12/28 05:08:21;;;;;;;0.05;0.00;;;19.50;60.40;;;;;;5038669;28;20112;-55
2021/12/28 05:10:50;;;;;;;0.43;0.00;;;19.50;60.40;;;;;;5035629;28;20147;-54
2021/12/28 05:13:19;;;;;;;0.32;0.30;;;19.50;60.40;;;;;;5031722;28;20075;-52
2021/12/28 05:15:46;;;;;;;1.75;0.00;;;19.50;60.30;;;;;;5032318;28;20045;-54
2021/12/28 05:18:14;;;;;;;0.60;0.10;;;19.50;60.30;;;;;;5040591;28;20115;-50
2021/12/28 05:20:42;;;;;;;0.60;0.00;;;19.50;60.30;;;;;;5036582;28;20597;-54
2021/12/28 05:23:09;;;;;;;0.10;0.00;;;19.50;60.30;;;;;;5037174;28;20095;-54
2021/12/28 05:25:36;;;;;;;0.05;0.00;;;19.50;60.20;;;;;;5034025;28;20041;-52
2021/12/28 05:28:05;;;;;;;0.00;0.00;;;19.50;60.20;;;;;;5044020;28;20044;-52
2021/12/28 05:30:34;;;;;;;0.00;0.00;;;19.50;60.20;;;;;;5030720;28;20051;-51
2021/12/28 05:33:02;;;;;;;0.13;0.00;;;19.50;60.10;;;;;;5037138;28;20414;-53
2021/12/28 05:35:29;;;;;;;0.05;0.00;;;19.50;60.10;;;;;;5032541;28;20049;-54
2021/12/28 05:37:56;;;;;;;1.95;0.10;;;19.50;60.10;;;;;;5036246;28;20521;-54
2021/12/28 05:40:24;;;;;;;0.20;0.00;;;19.50;60.10;;;;;;5044299;28;20048;-51
2021/12/28 05:42:51;;;;;;;0.40;0.40;;;19.50;60.60;;;;;;5033245;28;20095;-51
2021/12/28 05:45:18;;;;;;;1.33;0.08;;;19.50;60.00;;;;;;5032553;28;20053;-50
2021/12/28 05:47:46;;;;;;;2.15;0.08;;;19.50;60.00;;;;;;5033373;28;20059;-53
2021/12/28 05:50:13;;;;;;;0.28;0.00;;;19.50;60.00;;;;;;5037018;28;20033;-54
2021/12/28 05:52:40;;;;;;;0.20;0.00;;;19.50;60.00;;;;;;5032146;28;20051;-52
2021/12/28 05:55:08;;;;;;;1.10;0.63;;;19.50;60.00;;;;;;5036382;28;20144;-55
2021/12/28 05:57:35;;;;;;;0.68;0.10;;;19.50;60.00;;;;;;5031521;28;20047;-53
2021/12/28 06:00:04;;;;;;;0.03;0.03;;;19.50;60.00;;;;;;5038456;28;20403;-54
2021/12/28 06:02:32;;;;;;;1.25;0.00;;;19.50;59.90;;;;;;5035755;28;20123;-56
2021/12/28 06:05:00;;;;;;;1.88;0.00;;;19.50;60.00;;;;;;5037340;28;20058;-54
2021/12/28 06:07:27;;;;;;;1.27;0.10;;;19.50;59.90;;;;;;5032247;28;20033;-55
2021/12/28 06:09:56;;;;;;;0.30;0.00;;;19.50;59.90;;;;;;5034292;28;20045;-54
2021/12/28 06:12:23;;;;;;;0.17;0.15;;;19.50;59.90;;;;;;5032638;28;20049;-55
2021/12/28 06:14:51;;;;;;;2.17;0.08;;;19.50;59.90;;;;;;5034522;28;20555;-54
2021/12/28 06:17:19;;;;;;;0.30;0.00;;;19.50;59.90;;;;;;5036932;28;20037;-56
2021/12/28 06:19:46;;;;;;;0.52;0.10;;;19.50;59.80;;;;;;5033388;28;20128;-51
2021/12/28 06:22:14;;;;;;;0.63;0.10;;;19.50;59.80;;;;;;5029718;28;20060;-52
2021/12/28 06:24:42;;;;;;;0.77;0.00;;;19.50;59.80;;;;;;5030898;28;20049;-50
2021/12/28 06:27:09;;;;;;;1.58;0.00;;;19.50;59.80;;;;;;5038946;28;20045;-53
2021/12/28 06:29:36;;;;;;;1.02;0.75;;;19.50;59.80;;;;;;5034317;28;20037;-54
2021/12/28 06:32:03;;;;;;;1.50;0.10;;;19.50;59.70;;;;;;5033928;28;20076;-56
2021/12/28 06:34:30;;;;;;;2.25;0.10;;;19.50;59.70;;;;;;5033210;28;20764;-52
2021/12/28 06:36:57;;;;;;;1.00;0.00;;;19.50;59.70;;;;;;5035059;28;20042;-50
2021/12/28 06:39:26;;;;;;;0.70;0.00;;;19.50;59.70;;;;;;5034445;28;20048;-51
2021/12/28 06:41:53;;;;;;;0.30;0.00;;;19.50;59.70;;;;;;5036091;28;20136;-51
2021/12/28 06:44:20;;;;;;;1.52;0.00;;;19.50;59.70;;;;;;5038454;28;20041;-49
2021/12/28 06:46:49;;;;;;;1.70;0.05;;;19.50;59.70;;;;;;5044116;28;20037;-50
2021/12/28 06:49:16;;;;;;;1.10;0.10;;;19.50;59.60;;;;;;5031317;28;20041;-55
2021/12/28 06:51:43;;;;;;;0.65;0.00;;;19.50;59.60;;;;;;5032425;28;20045;-52
2021/12/28 06:54:10;;;;;;;0.35;0.00;;;19.50;59.60;;;;;;5032135;28;20364;-48
2021/12/28 06:56:39;;;;;;;3.88;0.17;;;19.50;59.70;;;;;;5032080;28;20068;-50
2021/12/28 06:59:06;;;;;;;3.33;0.10;;;19.50;59.60;;;;;;5035160;28;20047;-50
2021/12/28 07:01:33;;;;;;;4.25;0.25;;;19.50;59.60;;;;;;5032155;28;20052;-54
2021/12/28 07:04:00;;;;;;;0.90;0.10;;;19.40;59.60;;;;;;5032111;28;20041;-54
2021/12/28 07:06:28;;;;;;;1.42;0.17;;;19.40;59.50;;;;;;5033990;28;20049;-53
2021/12/28 07:08:56;;;;;;;1.48;0.32;;;19.40;59.50;;;;;;5040801;28;20050;-54
2021/12/28 07:11:23;;;;;;;2.45;0.10;;;19.40;59.50;;;;;;5036467;28;20045;-54
2021/12/28 07:13:51;;;;;;;0.10;0.10;;;19.40;59.50;;;;;;5034346;28;20101;-55
2021/12/28 07:16:19;;;;;;;0.73;0.10;;;19.40;59.50;;;;;;5034832;28;20529;-49
2021/12/28 07:18:46;;;;;;;0.40;0.05;;;19.40;59.50;;;;;;5037004;28;20113;-53
2021/12/28 07:21:14;;;;;;;1.42;0.10;;;19.40;59.50;;;;;;5036225;28;20136;-55
2021/12/28 07:23:41;;;;;;;0.57;0.20;;;19.40;59.50;;;;;;5037027;28;20704;-55
2021/12/28 07:26:08;;;;;;;1.02;0.10;;;19.40;59.50;;;;;;5040784;28;20414;-52
2021/12/28 07:28:36;;;;;;;3.80;0.10;;;19.40;59.50;;;;;;5037126;28;20048;-56
2021/12/28 07:31:04;;;;;;;1.27;0.00;;;19.40;59.40;;;;;;5033973;28;20102;-52
2021/12/28 07:33:31;;;;;;;3.83;0.52;;;19.40;59.40;;;;;;5036119;28;20041;-54
2021/12/28 07:35:59;;;;;;;1.58;0.10;;;19.40;59.40;;;;;;5041941;28;20124;-57
2021/12/28 07:38:26;;;;;;;1.55;0.10;;;19.40;59.40;;;;;;5037889;28;20044;-56
2021/12/28 07:40:53;;;;;;;1.55;0.00;;;19.40;59.30;;;;;;5035411;28;20529;-56
2021/12/28 07:43:21;;;;;;;2.92;0.10;;;19.40;59.30;;;;;;5037414;28;20045;-56
2021/12/28 07:45:48;;;;;;;1.65;0.10;;;19.40;59.30;;;;;;5038101;28;20060;-56
2021/12/28 07:48:17;;;;;;;2.50;0.10;;;19.40;59.30;;;;;;5038253;28;20053;-57
2021/12/28 07:50:44;;;;;;;2.65;0.40;;;19.40;59.30;;;;;;5043000;28;20045;-55
2021/12/28 07:53:11;;;;;;;0.38;0.38;;;19.40;59.90;;;;;;5043139;28;20076;-57
2021/12/28 07:55:38;;;;;;;1.25;0.10;;;19.40;59.30;;;;;;5033012;28;20042;-56
2021/12/28 07:58:06;;;;;;;3.13;0.25;;;19.40;59.30;;;;;;5038241;28;20448;-52
2021/12/28 08:00:33;;;;;;;0.65;0.05;;;19.40;59.30;;;;;;5036906;28;20049;-51
2021/12/28 08:03:03;;;;;;;1.20;0.10;;;19.40;59.30;;;;;;5046743;28;20106;-53
2021/12/28 08:05:33;;;;;;;1.45;0.10;;;19.40;59.30;;;;;;5038746;28;20034;-55
2021/12/28 08:08:02;;;;;;;1.27;0.10;;;19.40;59.30;;;;;;5037198;28;20458;-53
2021/12/28 08:10:29;;;;;;;1.17;0.10;;;19.40;59.30;;;;;;5046537;28;20037;-55
2021/12/28 08:12:57;;;;;;;2.63;0.10;;;19.40;59.30;;;;;;5031811;28;20045;-55
2021/12/28 08:15:26;;;;;;;0.75;0.10;;;19.30;59.20;;;;;;5033219;28;20413;-53
2021/12/28 08:17:53;;;;;;;1.30;0.30;;;19.40;59.20;;;;;;5039617;28;20038;-55
2021/12/28 08:20:21;;;;;;;1.92;0.40;;;19.40;59.20;;;;;;5037165;28;20055;-54
2021/12/28 08:22:50;;;;;;;2.00;0.68;;;19.40;59.20;;;;;;5042294;28;20045;-50
2021/12/28 08:25:20;;;;;;;0.95;0.10;;;19.30;59.20;;;;;;5033996;28;20588;-52
2021/12/28 08:27:47;;;;;;;0.30;0.10;;;19.30;59.20;;;;;;5035910;28;20056;-51
2021/12/28 08:30:15;;;;;;;2.65;0.10;;;19.40;59.20;;;;;;5035164;28;20048;-53
2021/12/28 08:32:43;;;;;;;1.67;0.10;;;19.30;59.50;;;;;;5035418;28;20161;-55
2021/12/28 08:35:11;;;;;;;0.70;0.08;;;19.30;59.20;;;;;;5038070;28;20061;-52
2021/12/28 08:37:39;;;;;;;0.70;0.10;;;19.30;59.20;;;;;;5035470;28;20545;-56
2021/12/28 08:40:10;;;;;;;1.52;0.10;;;19.30;59.20;;;;;;5032393;28;20118;-52
2021/12/28 08:42:37;;;;;;;1.35;0.32;;;19.40;59.20;;;;;;5032523;28;20056;-54
2021/12/28 08:45:07;;;;;;;1.88;0.25;;;19.30;59.20;;;;;;5040594;28;20136;-57
2021/12/28 08:47:34;;;;;;;3.22;0.25;;;19.40;59.20;;;;;;5036495;28;20066;-54
2021/12/28 08:50:01;;;;;;;1.98;0.08;;;19.30;59.20;;;;;;5032953;28;20068;-56
2021/12/28 08:52:28;;;;;;;0.50;0.10;;;19.40;59.20;;;;;;5045333;28;20045;-53
2021/12/28 08:54:55;;;;;;;2.28;0.30;;;19.40;59.20;;;;;;5036762;28;20041;-54
2021/12/28 08:57:24;;;;;;;1.67;0.38;;;19.40;59.20;;;;;;5046335;28;20313;-52
2021/12/28 08:59:51;;;;;;;1.92;0.20;;;19.30;59.20;;;;;;5038514;28;20043;-54
2021/12/28 09:02:19;;;;;;;2.55;0.10;;;19.30;59.20;;;;;;5039359;28;20041;-53
2021/12/28 09:04:46;;;;;;;0.65;0.05;;;19.30;59.20;;;;;;5036670;28;20037;-51
2021/12/28 09:07:14;;;;;;;1.55;0.25;;;19.40;59.30;;;;;;5045028;28;20049;-51
2021/12/28 09:09:41;;;;;;;0.57;0.10;;;19.40;59.30;;;;;;5035956;28;20041;-55
2021/12/28 09:12:09;;;;;;;2.15;0.20;;;19.40;59.30;;;;;;5046892;28;20045;-55
2021/12/28 09:14:39;;;;;;;2.70;0.10;;;19.40;59.30;;;;;;5039512;28;20041;-54
2021/12/28 09:17:07;;;;;;;3.63;0.28;;;19.40;59.30;;;;;;5044247;28;20807;-53
2021/12/28 09:19:36;;;;;;;0.68;0.10;;;19.40;59.30;;;;;;5034279;28;20045;-53
2021/12/28 09:22:03;;;;;;;7.03;0.35;;;19.30;59.30;;;;;;5034412;28;20072;-56
2021/12/28 09:24:31;;;;;;;3.03;0.47;;;19.30;59.30;;;;;;5038324;28;20132;-53
2021/12/28 09:26:58;;;;;;;2.40;0.10;;;19.40;59.30;;;;;;5038397;28;20065;-52
2021/12/28 09:29:29;;;;;;;3.75;0.40;;;19.30;59.30;;;;;;5037037;28;20049;-54
2021/12/28 09:31:59;;;;;;;1.73;0.20;;;19.40;59.30;;;;;;5039676;28;20095;-47
2021/12/28 09:34:28;;;;;;;1.15;0.08;;;19.30;59.30;;;;;;5038667;28;20098;-50
2021/12/28 09:36:55;;;;;;;1.33;0.13;;;19.40;59.30;;;;;;5039117;28;20124;-53
2021/12/28 09:39:26;;;;;;;3.13;0.55;;;19.30;59.30;;;;;;5034021;28;20041;-57
2021/12/28 09:41:54;;;;;;;1.08;0.10;;;19.40;59.30;;;;;;5034290;28;20504;-54
2021/12/28 09:44:23;;;;;;;6.20;0.68;;;19.30;59.40;;;;;;5043626;28;20045;-53
2021/12/28 09:46:50;;;;;;;6.72;0.40;;;19.30;59.50;;;;;;5043729;28;20147;-56
2021/12/28 09:49:18;;;;;;;3.03;0.60;;;19.30;59.70;;;;;;5044523;28;20045;-62
2021/12/28 09:51:46;;;;;;;1.80;0.20;;;19.30;59.80;;;;;;5039580;28;20521;-66
2021/12/28 09:54:14;;;;;;;39.28;3.97;;;19.30;60.50;;;;;;5039668;28;20045;-65
2021/12/28 09:56:41;;;;;;;22.40;1.67;;;19.30;60.00;;;;;;5035421;28;20052;-66
2021/12/28 09:59:09;;;;;;;20.90;1.23;;;19.30;60.20;;;;;;5035397;28;20041;-60
2021/12/28 10:01:37;;;;;;;15.25;2.08;;;19.30;60.40;;;;;;5022193;28;20126;-58
2021/12/28 10:04:04;;;;;;;17.85;1.10;;;19.30;60.00;;;;;;5032580;28;20072;-65
2021/12/28 10:06:33;;;;;;;9.25;0.68;;;19.40;60.00;;;;;;5041009;28;20047;-67
2021/12/28 10:09:08;;;;;;;15.45;1.10;;;19.40;59.90;;;;;;5037324;28;20060;-49
2021/12/28 10:11:37;;;;;;;14.07;1.13;;;19.50;59.90;;;;;;5038127;28;20041;-58
2021/12/28 10:14:15;;;;;;;15.25;0.90;;;19.60;59.80;;;;;;5037246;28;20131;-50
2021/12/28 10:16:45;;;;;;;12.20;0.82;;;19.80;59.40;;;;;;5036764;28;20052;-62
2021/12/28 10:19:32;;;;;;;16.95;1.02;;;19.90;59.00;;;;;;5035494;28;20180;-54
2021/12/28 10:22:30;;;;;;;7.72;1.25;;;20.20;58.20;;;;;;5035268;28;20146;-56
2021/12/28 10:25:00;;;;;;;9.32;0.82;;;20.40;57.60;;;;;;5040231;28;20041;-58
2021/12/28 10:27:31;;;;;;;8.68;0.63;;;20.60;56.90;;;;;;5039751;28;20044;-60
2021/12/28 10:30:07;;;;;;;13.32;1.40;;;20.80;56.30;;;;;;5035919;28;20044;-55
2021/12/28 10:32:35;;;;;;;14.25;0.75;;;21.00;55.70;;;;;;5031140;28;20618;-57
2021/12/28 10:35:05;;;;;;;10.68;0.68;;;21.20;55.10;;;;;;5036603;28;20045;-53
2021/12/28 10:37:38;;;;;;;13.15;0.85;;;21.30;54.60;;;;;;5037231;28;20041;-59
2021/12/28 10:40:08;;;;;;;7.10;0.60;;;21.40;54.10;;;;;;5039745;28;20136;-56
2021/12/28 10:42:46;;;;;;;16.92;1.13;;;21.60;53.70;;;;;;5044443;28;20402;-61
2021/12/28 10:45:16;;;;;;;10.05;0.55;;;21.70;53.30;;;;;;5039442;28;20128;-55
2021/12/28 10:47:44;;;;;;;10.82;0.75;;;21.90;52.80;;;;;;5037826;28;20049;-55
2021/12/28 10:50:37;;;;;;;10.80;1.23;;;22.00;52.30;;;;;;5039847;28;20688;-53
2021/12/28 10:53:20;;;;;;;6.10;0.93;;;22.30;51.60;;;;;;5036474;28;20052;-51
2021/12/28 10:55:51;;;;;;;10.20;1.55;;;22.50;51.00;;;;;;5039970;28;20094;-48
2021/12/28 10:58:24;;;;;;;29.42;3.83;;;22.70;50.40;;;;;;5042357;28;20129;-49
2021/12/28 11:00:52;;;;;;;23.90;4.03;;;22.90;49.90;;;;;;5040377;28;20048;-62
2021/12/28 11:03:26;;;;;;;31.88;3.70;;;22.90;49.60;;;;;;5042720;28;20044;-58
2021/12/28 11:05:56;;;;;;;22.70;3.95;;;23.10;49.50;;;;;;5034442;28;20045;-59
2021/12/28 11:08:27;;;;;;;24.55;4.18;;;23.10;49.30;;;;;;5040417;28;20041;-58
2021/12/28 11:10:57;;;;;;;18.10;2.88;;;23.10;49.30;;;;;;5039659;28;20128;-60
2021/12/28 11:13:27;;;;;;;15.82;2.50;;;23.20;49.20;;;;;;5040124;28;20096;-57
2021/12/28 11:15:55;;;;;;;16.30;3.35;;;23.20;49.30;;;;;;5035277;28;20511;-58
2021/12/28 11:18:25;;;;;;;12.32;2.22;;;23.20;49.10;;;;;;5039523;28;20091;-57
2021/12/28 11:20:56;;;;;;;17.58;5.13;;;23.30;49.20;;;;;;5041152;28;20065;-58
2021/12/28 11:23:26;;;;;;;12.63;4.07;;;23.20;49.00;;;;;;5037709;28;20841;-55
2021/12/28 11:26:12;;;;;;;12.05;4.30;;;23.30;49.00;;;;;;5036402;28;20056;-58
2021/12/28 11:28:41;;;;;;;13.63;3.80;;;23.40;48.90;;;;;;5041633;28;20049;-60
2021/12/28 11:31:15;;;;;;;10.68;3.35;;;23.30;48.70;;;;;;5039614;28;20039;-58
2021/12/28 11:33:45;;;;;;;12.27;3.25;;;23.40;48.60;;;;;;5038198;28;20053;-57
2021/12/28 11:36:14;;;;;;;10.50;3.03;;;23.40;48.60;;;;;;5039963;28;20716;-58
2021/12/28 11:38:43;;;;;;;10.95;3.53;;;23.50;48.40;;;;;;5042260;28;20051;-58
2021/12/28 11:41:11;;;;;;;12.45;3.70;;;23.50;48.10;;;;;;5042253;28;20041;-61
2021/12/28 11:43:39;;;;;;;12.95;3.53;;;23.50;48.00;;;;;;5038026;28;20429;-65
2021/12/28 11:46:08;;;;;;;17.35;3.35;;;23.60;47.90;;;;;;5040026;28;20518;-62
2021/12/28 11:48:36;;;;;;;15.70;3.72;;;23.60;47.90;;;;;;5043261;28;20044;-63
2021/12/28 11:51:03;;;;;;;14.25;2.40;;;23.60;47.70;;;;;;5039581;28;20053;-61
2021/12/28 11:53:31;;;;;;;8.48;2.47;;;23.60;47.70;;;;;;5040244;28;20041;-52
2021/12/28 11:56:00;;;;;;;10.98;2.03;;;23.60;47.60;;;;;;5039059;28;20044;-58
2021/12/28 11:59:01;;;;;;;11.57;2.60;;;23.70;47.70;;;;;;5038134;28;20052;-58
2021/12/28 12:01:54;;;;;;;11.05;2.53;;;23.70;47.60;;;;;;4995512;28;20204;-59
2021/12/28 12:04:58;;;;;;;12.63;2.38;;;23.70;47.50;;;;;;4991473;28;20133;-58
2021/12/28 12:07:32;;;;;;;8.10;1.48;;;23.70;47.50;;;;;;4998715;28;20046;-58
2021/12/28 12:10:27;;;;;;;7.95;1.60;;;23.70;47.50;;;;;;4978200;28;20061;-57
2021/12/28 12:13:07;;;;;;;10.63;2.00;;;23.70;47.40;;;;;;4998342;28;20436;-58
2021/12/28 12:15:40;;;;;;;9.93;1.52;;;23.80;47.50;;;;;;4997060;28;20064;-57
2021/12/28 12:18:13;;;;;;;6.15;1.95;;;23.80;47.40;;;;;;4996179;28;20069;-57
2021/12/28 12:20:47;;;;;;;3.65;1.05;;;23.80;47.30;;;;;;4994425;28;20053;-58
2021/12/28 12:23:19;;;;;;;5.75;1.13;;;23.80;47.30;;;;;;4997861;28;20108;-56
2021/12/28 12:25:54;;;;;;;9.82;1.30;;;23.80;47.30;;;;;;4996153;28;20831;-56
2021/12/28 12:28:31;;;;;;;7.10;1.50;;;23.90;47.30;;;;;;4994217;28;20612;-55
2021/12/28 12:30:59;;;;;;;3.65;0.63;;;23.90;47.20;;;;;;4963169;28;20065;-57
2021/12/28 12:33:36;;;;;;;7.93;1.92;;;23.90;47.10;;;;;;4999175;28;20052;-58
2021/12/28 12:36:04;;;;;;;6.72;1.42;;;23.90;47.00;;;;;;5021637;28;20521;-57
2021/12/28 12:38:36;;;;;;;5.82;0.77;;;23.90;47.00;;;;;;5038544;28;20041;-58
2021/12/28 12:41:07;;;;;;;3.03;1.02;;;23.90;46.90;;;;;;5040808;28;20356;-57
2021/12/28 12:43:54;;;;;;;8.57;1.00;;;23.90;46.70;;;;;;5036666;28;20122;-56
2021/12/28 12:46:31;;;;;;;6.25;1.60;;;24.00;46.80;;;;;;5039071;28;20044;-57
2021/12/28 12:49:08;;;;;;;6.95;1.13;;;24.00;46.90;;;;;;5039255;28;20425;-56
2021/12/28 12:51:39;;;;;;;8.43;1.77;;;24.10;47.20;;;;;;5042360;28;20049;-56
2021/12/28 12:54:16;;;;;;;16.10;2.17;;;24.10;47.20;;;;;;5039932;28;20052;-53
2021/12/28 12:56:58;;;;;;;10.73;1.70;;;24.10;47.10;;;;;;5039223;28;20045;-56
2021/12/28 12:59:30;;;;;;;8.50;1.20;;;24.10;47.20;;;;;;5038914;28;20051;-57